Time;durP1;ratioP1;P1;durP2;ratioP2;P2;SDS_P1;SDS_P2;PMS_P1;PMS_P2;Temp;Humidity;BMP_temperature;BMP_pressure;BME280_temperature;BME280_humidity;BME280_pressure;Samples;Min_cycle;Max_cycle;Signal;HPM_P1;HPM_P2
2022/04/16 00:00:01;;;;;;;0.77;0.65;;;;;;;24.31;39.59;101716.03;4181910;28;20488;-64
2022/04/16 00:02:02;;;;;;;1.98;0.82;;;;;;;24.31;39.62;101719.66;4187117;28;20094;-64
2022/04/16 00:04:04;;;;;;;1.65;0.70;;;;;;;24.31;39.75;101730.84;4198026;28;20427;-63
2022/04/16 00:06:05;;;;;;;1.00;0.73;;;;;;;24.28;39.79;101713.78;4198045;28;20377;-64
2022/04/16 00:08:07;;;;;;;1.27;0.70;;;;;;;24.30;39.73;101725.53;4198134;28;20086;-64
2022/04/16 00:10:09;;;;;;;0.60;0.60;;;;;;;24.29;39.66;101723.88;4198287;28;20426;-63
2022/04/16 00:12:11;;;;;;;0.90;0.82;;;;;;;24.21;40.06;101708.50;4176401;28;20484;-64
2022/04/16 00:14:12;;;;;;;1.45;0.70;;;;;;;24.28;39.71;101722.16;4175260;28;20195;-64
2022/04/16 00:16:16;;;;;;;1.30;0.60;;;;;;;24.30;39.64;101731.13;4181734;28;20041;-64
2022/04/16 00:18:20;;;;;;;1.27;0.70;;;;;;;24.30;39.48;101740.34;4182153;28;20437;-64
2022/04/16 00:20:27;;;;;;;1.38;0.82;;;;;;;24.30;39.65;101739.53;4182571;28;20095;-64
2022/04/16 00:22:28;;;;;;;1.02;0.60;;;;;;;24.30;39.91;101748.75;4181758;28;20434;-64
2022/04/16 00:24:29;;;;;;;0.73;0.60;;;;;;;24.28;39.71;101739.81;4181524;28;20442;-64
2022/04/16 00:26:31;;;;;;;1.02;0.80;;;;;;;24.28;39.74;101745.41;4190539;28;20041;-64
2022/04/16 00:28:35;;;;;;;1.02;0.80;;;;;;;24.29;39.59;101747.09;4176813;28;20088;-64
2022/04/16 00:30:39;;;;;;;1.20;0.70;;;;;;;24.28;39.85;101752.94;4164593;28;20087;-64
2022/04/16 00:32:44;;;;;;;0.68;0.63;;;;;;;24.28;39.77;101753.81;4164563;28;20439;-65
2022/04/16 00:34:46;;;;;;;;;;;;;;;24.27;39.88;101754.06;4164828;28;20037;-63
2022/04/16 00:36:48;;;;;;;0.98;0.75;;;;;;;24.33;39.29;101753.78;4165564;28;19939;-64
2022/04/16 00:38:49;;;;;;;0.60;0.60;;;;;;;24.32;39.75;101752.09;4191854;28;20044;-64
2022/04/16 00:41:08;;;;;;;0.80;0.70;;;;;;;24.24;39.58;101744.31;4198052;28;20045;-64
2022/04/16 00:43:24;;;;;;;0.60;0.60;;;;;;;24.27;40.04;101768.88;4197877;28;20601;-64
2022/04/16 00:45:25;;;;;;;0.88;0.50;;;;;;;24.29;39.97;101768.63;4196701;28;20480;-65
2022/04/16 00:47:27;;;;;;;0.55;0.55;;;;;;;24.28;39.77;101770.59;4197998;28;20495;-64
2022/04/16 00:49:28;;;;;;;1.05;0.50;;;;;;;24.28;40.11;101770.59;4195502;28;20036;-64
2022/04/16 00:51:30;;;;;;;1.95;0.70;;;;;;;24.23;40.08;101770.56;4181257;28;20041;-64
2022/04/16 00:53:34;;;;;;;1.75;0.65;;;;;;;24.19;40.04;101769.50;4180805;28;20040;-64
2022/04/16 00:55:37;;;;;;;1.17;0.80;;;;;;;24.26;40.12;101781.19;4180577;28;20045;-63
2022/04/16 00:57:43;;;;;;;2.17;1.13;;;;;;;24.27;40.26;101782.03;4180938;28;20067;-63
2022/04/16 00:59:44;;;;;;;1.73;1.27;;;;;;;24.27;39.68;101780.06;4181198;28;20365;-63
2022/04/16 01:01:48;;;;;;;1.17;0.73;;;;;;;24.26;39.94;101778.41;4184604;28;20127;-63
2022/04/16 01:03:50;;;;;;;0.82;0.70;;;;;;;24.26;39.81;101786.78;4200184;28;20048;-63
2022/04/16 01:05:52;;;;;;;0.95;0.70;;;;;;;24.26;39.45;101784.00;4200618;28;20205;-63
2022/04/16 01:08:02;;;;;;;1.08;0.73;;;;;;;24.11;39.51;101756.06;4184755;28;20034;-63
2022/04/16 01:10:04;;;;;;;1.35;0.73;;;;;;;24.26;39.74;101786.78;4167625;28;20037;-64
2022/04/16 01:12:06;;;;;;;1.75;0.70;;;;;;;24.27;39.58;101784.84;4167926;28;20420;-63
2022/04/16 01:14:07;;;;;;;0.85;0.73;;;;;;;24.24;39.67;101794.66;4172471;28;20037;-64
2022/04/16 01:16:09;;;;;;;0.88;0.82;;;;;;;24.25;39.86;101785.13;4183475;28;20040;-64
2022/04/16 01:18:12;;;;;;;0.82;0.70;;;;;;;24.24;39.87;101772.28;4184058;28;20534;-64
2022/04/16 01:20:16;;;;;;;1.17;0.50;;;;;;;24.23;39.86;101770.56;4184028;28;20066;-63
2022/04/16 01:22:20;;;;;;;0.85;0.60;;;;;;;24.23;39.34;101767.78;4183309;28;20040;-64
2022/04/16 01:24:24;;;;;;;1.00;0.90;;;;;;;24.18;39.61;101761.38;4179156;28;20055;-64
2022/04/16 01:26:29;;;;;;;1.90;0.95;;;;;;;24.21;39.69;101772.00;4184444;28;20040;-64
2022/04/16 01:28:30;;;;;;;;;;;;;;;24.22;39.93;101773.66;4200913;28;20106;-63
2022/04/16 01:30:34;;;;;;;1.00;0.70;;;;;;;24.17;39.33;101754.94;4200542;28;19923;-64
2022/04/16 01:32:36;;;;;;;1.92;0.82;;;;;;;24.21;39.61;101750.47;4200675;28;20102;-64
2022/04/16 01:34:37;;;;;;;0.88;0.68;;;;;;;24.26;39.39;101764.41;4200299;28;20041;-64
2022/04/16 01:36:39;;;;;;;0.88;0.60;;;;;;;24.25;39.36;101768.34;4198678;28;20067;-64
2022/04/16 01:38:40;;;;;;;0.73;0.68;;;;;;;24.23;39.64;101764.13;4190667;28;20369;-64
2022/04/16 01:40:42;;;;;;;0.85;0.80;;;;;;;24.22;39.76;101754.91;4184210;28;20463;-64
2022/04/16 01:42:47;;;;;;;1.60;0.60;;;;;;;24.21;39.38;101761.63;4184323;28;20099;-64
2022/04/16 01:44:48;;;;;;;;;;;;;;;24.18;39.71;101753.81;4184503;28;20040;-64
2022/04/16 01:46:49;;;;;;;1.42;0.90;;;;;;;24.24;39.23;101755.50;4183948;28;19912;-64
2022/04/16 01:48:53;;;;;;;1.42;0.90;;;;;;;24.24;39.48;101755.50;4184431;28;20423;-64
2022/04/16 01:50:55;;;;;;;1.95;0.90;;;;;;;24.19;39.28;101744.31;4195119;28;20044;-64
2022/04/16 01:52:59;;;;;;;0.68;0.68;;;;;;;24.08;39.15;101729.50;4200017;28;20086;-65
2022/04/16 01:55:01;;;;;;;0.80;0.70;;;;;;;24.18;39.43;101751.00;4199684;28;20040;-65
2022/04/16 01:57:07;;;;;;;0.77;0.77;;;;;;;24.04;39.57;101730.34;4200000;28;20032;-65
2022/04/16 01:59:14;;;;;;;1.80;0.93;;;;;;;24.11;39.51;101739.31;4200255;28;20033;-64
2022/04/16 02:01:18;;;;;;;1.98;0.80;;;;;;;24.17;39.66;101749.34;4189402;28;20029;-63
2022/04/16 02:03:21;;;;;;;0.85;0.82;;;;;;;24.05;39.08;101726.44;4195007;28;20377;-64
2022/04/16 02:05:22;;;;;;;1.25;0.88;;;;;;;24.17;39.45;101745.72;4200010;28;20044;-63
2022/04/16 02:07:24;;;;;;;1.02;0.90;;;;;;;24.08;39.26;101728.66;4200273;28;20071;-63
2022/04/16 02:09:25;;;;;;;2.33;1.20;;;;;;;24.12;39.66;101737.34;4200390;28;20036;-65
2022/04/16 02:11:30;;;;;;;1.10;0.95;;;;;;;24.15;39.44;101740.41;4200320;28;20032;-64
2022/04/16 02:13:31;;;;;;;1.05;0.82;;;;;;;24.06;39.22;101723.38;4200104;28;20525;-65
2022/04/16 02:15:35;;;;;;;0.93;0.82;;;;;;;24.14;39.28;101737.88;4185857;28;20376;-63
2022/04/16 02:17:37;;;;;;;0.80;0.67;;;;;;;24.01;39.17;101711.38;4177635;28;20104;-63
2022/04/16 02:19:39;;;;;;;1.20;1.10;;;;;;;24.13;39.32;101725.84;4166384;28;20172;-63
2022/04/16 02:21:49;;;;;;;1.08;0.85;;;;;;;24.12;39.14;101729.78;4166759;28;20080;-63
2022/04/16 02:23:51;;;;;;;1.38;0.70;;;;;;;24.11;39.36;101722.53;4166516;28;20076;-64
2022/04/16 02:25:53;;;;;;;1.00;0.90;;;;;;;24.12;39.55;101732.59;4169132;28;20419;-63
2022/04/16 02:27:54;;;;;;;1.25;0.90;;;;;;;23.96;39.53;101701.03;4199307;28;20036;-64
2022/04/16 02:29:56;;;;;;;2.10;0.85;;;;;;;24.09;39.45;101727.53;4199443;28;20036;-65
2022/04/16 02:31:57;;;;;;;1.63;0.90;;;;;;;24.11;39.40;101722.53;4199685;28;20125;-63
2022/04/16 02:33:58;;;;;;;0.60;0.60;;;;;;;24.11;39.16;101732.88;4171003;28;20041;-65
2022/04/16 02:36:00;;;;;;;1.45;0.90;;;;;;;24.10;39.38;101729.25;4165666;28;20034;-63
2022/04/16 02:38:07;;;;;;;1.30;0.98;;;;;;;24.09;39.27;101724.75;4172170;28;20036;-63
2022/04/16 02:40:13;;;;;;;1.17;0.80;;;;;;;24.09;39.15;101725.59;4199043;28;20487;-63
2022/04/16 02:42:18;;;;;;;1.02;0.93;;;;;;;24.08;39.04;101717.50;4199434;28;20049;-64
2022/04/16 02:48:59;;;;;;;2.20;0.88;;;;;;;24.08;39.04;101717.50;4182996;28;20071;-63
2022/04/16 02:51:02;;;;;;;1.60;1.13;;;;;;;23.96;39.06;101711.38;4172297;28;20111;-64
2022/04/16 02:53:13;;;;;;;2.55;1.02;;;;;;;23.94;39.24;101694.03;4165975;28;20092;-63
2022/04/16 02:55:15;;;;;;;1.08;0.90;;;;;;;24.07;39.21;101715.81;4166142;28;20053;-63
2022/04/16 02:57:19;;;;;;;1.67;1.13;;;;;;;24.07;38.79;101715.81;4186317;28;20044;-64
2022/04/16 02:59:20;;;;;;;0.80;0.77;;;;;;;24.07;39.28;101715.81;4197721;28;20547;-64
2022/04/16 03:01:21;;;;;;;1.20;1.10;;;;;;;24.06;39.36;101714.16;4198843;28;20048;-63
2022/04/16 03:03:23;;;;;;;1.55;1.10;;;;;;;24.07;39.19;101710.22;4199188;28;20032;-64
2022/04/16 03:05:24;;;;;;;1.38;1.27;;;;;;;24.02;38.78;101701.84;4198691;28;20476;-64
2022/04/16 03:07:26;;;;;;;1.50;0.98;;;;;;;24.06;39.04;101711.34;4199110;28;20044;-64
2022/04/16 03:09:27;;;;;;;1.77;1.13;;;;;;;23.92;38.89;101690.72;4172394;28;20096;-64
2022/04/16 03:11:32;;;;;;;1.35;0.88;;;;;;;23.87;38.72;101687.91;4198877;28;20104;-64
2022/04/16 03:13:36;;;;;;;1.48;1.10;;;;;;;23.97;38.93;101699.91;4199112;28;20044;-64
2022/04/16 03:17:57;;;;;;;1.15;0.90;;;;;;;23.97;38.73;101707.47;4199176;28;20526;-62
2022/04/16 03:20:09;;;;;;;0.75;0.73;;;;;;;23.88;38.96;101695.19;4199020;28;20036;-62
2022/04/16 03:22:10;;;;;;;2.00;1.00;;;;;;;24.04;38.57;101724.75;4192279;28;20098;-62
2022/04/16 03:24:15;;;;;;;0.90;0.75;;;;;;;24.01;38.50;101716.97;4182080;28;20037;-63
2022/04/16 03:26:16;;;;;;;1.42;0.90;;;;;;;24.03;38.83;101725.91;4180836;28;20546;-63
2022/04/16 03:28:18;;;;;;;0.82;0.82;;;;;;;24.02;38.57;101722.25;4181929;28;20033;-63
2022/04/16 03:30:23;;;;;;;1.98;1.10;;;;;;;23.94;38.82;101711.66;4182400;28;20049;-62
2022/04/16 03:32:27;;;;;;;1.17;0.90;;;;;;;23.99;38.62;101719.19;4181285;28;20110;-63
2022/04/16 03:34:31;;;;;;;1.90;0.85;;;;;;;24.01;38.56;101714.16;4187218;28;20608;-63
2022/04/16 03:36:35;;;;;;;1.27;1.17;;;;;;;24.01;38.55;101716.97;4198707;28;20479;-63
2022/04/16 03:38:36;;;;;;;1.52;0.85;;;;;;;24.01;38.55;101719.75;4198056;28;20036;-64
2022/04/16 03:40:38;;;;;;;0.73;0.70;;;;;;;24.01;38.75;101723.38;4197986;28;20098;-64
2022/04/16 03:42:51;;;;;;;1.40;1.00;;;;;;;24.00;38.67;101720.84;4198697;28;20036;-63
2022/04/16 03:44:52;;;;;;;1.30;0.80;;;;;;;24.00;38.88;101715.28;4198113;28;20082;-63
2022/04/16 03:46:53;;;;;;;2.45;0.95;;;;;;;23.98;38.89;101709.97;4184908;28;20525;-63
2022/04/16 03:48:59;;;;;;;2.10;0.90;;;;;;;23.99;38.57;101714.44;4181693;28;20468;-62
2022/04/16 03:51:03;;;;;;;0.80;0.80;;;;;;;23.98;38.65;101717.53;4181897;28;20447;-63
2022/04/16 03:53:08;;;;;;;0.70;0.70;;;;;;;23.98;38.85;101723.13;4181803;28;20037;-64
2022/04/16 03:59:59;;;;;;;1.27;1.00;;;;;;;23.99;38.48;101708.00;4197616;28;20118;-63
2022/04/16 04:02:03;;;;;;;1.13;0.93;;;;;;;23.97;38.73;101701.88;4198446;28;20045;-64
2022/04/16 04:04:04;;;;;;;1.20;1.08;;;;;;;23.98;38.52;101703.53;4198091;28;20082;-64
2022/04/16 04:06:06;;;;;;;2.05;0.93;;;;;;;23.98;38.34;101700.75;4198744;28;20373;-64
2022/04/16 04:08:12;;;;;;;1.55;1.10;;;;;;;23.97;38.43;101701.88;4197433;28;20495;-64
2022/04/16 04:10:17;;;;;;;1.42;1.17;;;;;;;23.92;38.52;101699.09;4186521;28;20153;-64
2022/04/16 04:12:18;;;;;;;1.52;0.80;;;;;;;23.97;38.37;101704.66;4181319;28;20373;-63
2022/04/16 04:14:22;;;;;;;1.38;0.95;;;;;;;23.94;38.26;101702.44;4181223;28;20114;-63
2022/04/16 04:16:26;;;;;;;1.48;0.90;;;;;;;23.94;38.50;101694.88;4181264;28;20041;-62
2022/04/16 04:18:30;;;;;;;1.08;1.00;;;;;;;23.90;38.56;101696.56;4181672;28;20099;-63
2022/04/16 04:20:31;;;;;;;1.98;1.00;;;;;;;23.92;38.84;101699.94;4181319;28;20041;-63
2022/04/16 04:22:33;;;;;;;1.52;0.73;;;;;;;23.94;38.53;101699.63;4187392;28;20090;-63
2022/04/16 04:24:37;;;;;;;3.65;0.90;;;;;;;23.90;38.53;101692.94;4197774;28;20480;-63
2022/04/16 04:26:38;;;;;;;1.25;0.60;;;;;;;23.94;38.37;101694.03;4197933;28;20094;-63
2022/04/16 04:28:40;;;;;;;1.83;1.20;;;;;;;23.94;38.35;101699.63;4198157;28;20037;-64
2022/04/16 04:30:41;;;;;;;0.90;0.80;;;;;;;23.87;38.81;101682.31;4197464;28;20041;-64
2022/04/16 04:32:42;;;;;;;1.42;0.85;;;;;;;23.58;38.54;101641.81;4198225;28;20040;-64
2022/04/16 04:34:44;;;;;;;1.05;0.77;;;;;;;23.92;38.52;101693.50;4181897;28;20098;-63
2022/04/16 04:36:48;;;;;;;1.15;0.73;;;;;;;23.77;38.71;101660.81;4198090;28;20036;-64
2022/04/16 04:38:50;;;;;;;1.30;0.90;;;;;;;23.91;38.61;101695.44;4197808;28;20049;-63
2022/04/16 04:40:51;;;;;;;0.73;0.70;;;;;;;23.84;38.72;101683.72;4198126;28;20082;-63
2022/04/16 04:42:55;;;;;;;1.25;0.73;;;;;;;23.82;38.66;101670.06;4197671;28;20045;-64
2022/04/16 04:44:57;;;;;;;1.70;0.82;;;;;;;23.91;38.64;101687.06;4197771;28;20082;-64
2022/04/16 04:47:01;;;;;;;1.73;1.13;;;;;;;23.83;38.42;101684.84;4188828;28;20087;-63
2022/04/16 04:49:02;;;;;;;2.35;0.75;;;;;;;23.91;38.78;101703.81;4181426;28;20078;-64
2022/04/16 04:51:03;;;;;;;1.05;0.80;;;;;;;23.91;38.46;101703.81;4180898;28;20430;-63
2022/04/16 04:53:05;;;;;;;1.25;0.88;;;;;;;23.90;38.39;101704.13;4180735;28;20095;-64
2022/04/16 04:55:09;;;;;;;0.80;0.80;;;;;;;23.80;38.38;101691.00;4179425;28;20111;-67
2022/04/16 04:57:10;;;;;;;1.13;0.70;;;;;;;23.89;38.38;101714.47;4181386;28;20037;-62
2022/04/16 04:59:11;;;;;;;2.90;1.00;;;;;;;23.90;38.25;101715.28;4193884;28;20487;-63
2022/04/16 05:01:13;;;;;;;1.15;0.60;;;;;;;23.87;38.47;101718.66;4197674;28;20032;-63
2022/04/16 05:03:14;;;;;;;1.52;0.75;;;;;;;23.88;38.33;101714.75;4198108;28;20106;-63
2022/04/16 05:05:16;;;;;;;1.10;0.73;;;;;;;23.89;38.26;101713.63;4197558;28;20037;-64
2022/04/16 05:07:18;;;;;;;0.52;0.52;;;;;;;23.80;38.13;101694.63;4186860;28;20053;-63
2022/04/16 05:09:22;;;;;;;0.90;0.80;;;;;;;23.88;38.04;101697.97;4180935;28;20434;-63
2022/04/16 05:11:23;;;;;;;0.73;0.70;;;;;;;23.86;38.35;101692.66;4168110;28;20041;-63
2022/04/16 05:13:24;;;;;;;0.60;0.60;;;;;;;23.87;37.99;101687.91;4164795;28;20057;-63
2022/04/16 05:15:31;;;;;;;1.08;0.60;;;;;;;23.81;38.20;101682.31;4164289;28;20049;-62
2022/04/16 05:17:40;;;;;;;0.90;0.73;;;;;;;23.87;38.35;101687.91;4189499;28;20090;-63
2022/04/16 05:19:41;;;;;;;1.45;0.82;;;;;;;23.70;38.43;101663.91;4197554;28;20479;-64
2022/04/16 05:21:45;;;;;;;1.45;1.00;;;;;;;23.72;38.27;101672.84;4196693;28;20091;-63
2022/04/16 05:23:46;;;;;;;0.70;0.60;;;;;;;23.82;38.08;101684.03;4197729;28;20066;-63
2022/04/16 05:25:48;;;;;;;2.45;0.90;;;;;;;23.82;38.47;101681.22;4197193;28;20098;-63
2022/04/16 05:27:56;;;;;;;1.25;1.05;;;;;;;23.78;38.53;101685.72;4173801;28;20045;-64
2022/04/16 05:30:06;;;;;;;1.00;0.80;;;;;;;23.84;38.42;101701.34;4164600;28;20046;-63
2022/04/16 05:32:09;;;;;;;1.05;0.80;;;;;;;23.84;37.98;101698.53;4164616;28;20107;-63
2022/04/16 05:34:19;;;;;;;0.70;0.60;;;;;;;23.83;38.38;101699.66;4164515;28;20045;-65
2022/04/16 05:36:29;;;;;;;1.25;0.70;;;;;;;23.81;38.22;101693.50;4163888;28;20045;-64
2022/04/16 05:38:31;;;;;;;1.50;0.80;;;;;;;23.81;38.44;101684.28;4164525;28;20099;-64
2022/04/16 05:40:32;;;;;;;0.80;0.80;;;;;;;23.81;38.56;101687.91;4171219;28;20529;-63
2022/04/16 05:42:41;;;;;;;0.90;0.73;;;;;;;23.80;38.33;101693.81;4195320;28;20036;-63
2022/04/16 05:44:45;;;;;;;1.33;0.80;;;;;;;23.78;38.39;101685.72;4164092;28;20100;-63
2022/04/16 05:46:50;;;;;;;1.05;0.70;;;;;;;23.81;38.33;101689.88;4164459;28;20041;-63
2022/04/16 05:48:51;;;;;;;1.05;0.70;;;;;;;23.81;38.25;101690.72;4164579;28;20083;-63
2022/04/16 05:50:52;;;;;;;1.05;0.65;;;;;;;23.80;38.52;101689.03;4169650;28;20086;-64
2022/04/16 05:52:54;;;;;;;0.90;0.65;;;;;;;23.73;38.47;101671.75;4183919;28;20075;-63
2022/04/16 05:54:55;;;;;;;0.68;0.60;;;;;;;21.95;38.19;101395.47;4183513;28;20044;-63
2022/04/16 05:57:00;;;;;;;1.33;1.17;;;;;;;23.80;38.44;101689.03;4183458;28;20480;-63
2022/04/16 05:59:01;;;;;;;0.73;0.70;;;;;;;23.79;38.45;101684.59;4182740;28;20461;-63
2022/04/16 06:01:03;;;;;;;0.82;0.60;;;;;;;23.79;38.07;101676.19;4186524;28;20033;-63
2022/04/16 06:03:05;;;;;;;0.52;0.52;;;;;;;23.79;38.26;101675.38;4200374;28;20106;-64
2022/04/16 06:05:10;;;;;;;1.17;0.70;;;;;;;23.77;38.37;101672.81;4200034;28;20036;-63
2022/04/16 06:07:11;;;;;;;1.10;0.68;;;;;;;23.77;37.96;101661.66;4200290;28;20098;-63
2022/04/16 06:09:13;;;;;;;0.95;0.60;;;;;;;23.66;38.18;101645.22;4198142;28;20024;-63
2022/04/16 06:11:18;;;;;;;1.25;0.80;;;;;;;23.77;38.33;101666.41;4184960;28;20434;-63
2022/04/16 06:13:19;;;;;;;1.23;0.77;;;;;;;23.76;38.25;101659.97;4183246;28;20045;-64
2022/04/16 06:15:22;;;;;;;0.80;0.50;;;;;;;23.75;38.34;101657.47;4183294;28;20037;-66
2022/04/16 06:17:23;;;;;;;1.88;0.70;;;;;;;23.75;38.26;101651.91;4183646;28;20070;-63
2022/04/16 06:19:27;;;;;;;1.38;1.27;;;;;;;23.73;38.43;101654.97;4185849;28;20119;-64
2022/04/16 06:21:29;;;;;;;0.60;0.60;;;;;;;23.73;38.07;101654.97;4199751;28;20040;-63
2022/04/16 06:23:31;;;;;;;1.25;1.00;;;;;;;23.74;38.28;101650.22;4171934;28;20092;-64
2022/04/16 06:25:33;;;;;;;1.50;0.60;;;;;;;23.73;37.78;101643.81;4166591;28;20049;-64
2022/04/16 06:27:38;;;;;;;0.82;0.80;;;;;;;23.73;38.03;101643.81;4166551;28;20050;-63
2022/04/16 06:29:39;;;;;;;1.40;0.70;;;;;;;23.73;38.14;101635.41;4167068;28;20440;-64
2022/04/16 06:31:41;;;;;;;0.75;0.70;;;;;;;23.74;37.80;101633.47;4181839;28;20032;-64
2022/04/16 06:33:42;;;;;;;1.40;0.70;;;;;;;23.73;38.32;101632.63;4199536;28;20082;-64
2022/04/16 06:35:43;;;;;;;0.77;0.70;;;;;;;23.73;37.93;101634.56;4198122;28;20098;-63
2022/04/16 06:37:45;;;;;;;1.10;0.70;;;;;;;23.60;38.21;101610.81;4199681;28;20094;-63
2022/04/16 06:39:55;;;;;;;2.85;0.77;;;;;;;23.65;38.12;101619.22;4170742;28;20033;-64
2022/04/16 06:41:59;;;;;;;0.60;0.60;;;;;;;23.55;37.81;101596.88;4165194;28;20103;-64
2022/04/16 06:44:03;;;;;;;0.85;0.85;;;;;;;23.73;38.00;101618.66;4187011;28;20384;-64
2022/04/16 06:46:04;;;;;;;1.15;0.70;;;;;;;23.58;38.25;101591.53;4199002;28;20090;-64
2022/04/16 06:48:05;;;;;;;2.08;0.85;;;;;;;23.72;38.20;101605.78;4199155;28;20103;-64
2022/04/16 06:50:17;;;;;;;0.60;0.60;;;;;;;23.71;38.16;101601.31;4199207;28;20040;-64
2022/04/16 06:52:19;;;;;;;0.77;0.50;;;;;;;23.71;37.98;101598.53;4199155;28;20360;-64
2022/04/16 06:54:20;;;;;;;1.02;0.52;;;;;;;23.69;38.00;101600.78;4193637;28;21123;-64
2022/04/16 06:56:21;;;;;;;1.13;0.70;;;;;;;23.71;37.97;101595.72;4194945;28;20036;-63
2022/04/16 06:58:23;;;;;;;2.05;0.60;;;;;;;23.71;38.04;101598.53;4199474;28;20040;-62
2022/04/16 07:00:24;;;;;;;0.52;0.52;;;;;;;23.70;38.00;101588.47;4199308;28;20036;-62
2022/04/16 07:02:25;;;;;;;0.65;0.60;;;;;;;23.71;38.34;101595.72;4200075;28;20032;-63
2022/04/16 07:04:27;;;;;;;1.95;0.70;;;;;;;23.71;37.94;101601.31;4199394;28;20032;-63
2022/04/16 07:06:28;;;;;;;0.50;0.50;;;;;;;23.69;38.14;101599.94;4199002;28;20442;-63
2022/04/16 07:08:29;;;;;;;0.60;0.60;;;;;;;23.70;38.34;101596.84;4186192;28;20041;-63
2022/04/16 07:10:31;;;;;;;0.60;0.60;;;;;;;23.69;38.27;101586.81;4182585;28;20037;-63
2022/04/16 07:12:32;;;;;;;1.27;0.75;;;;;;;23.62;38.40;101566.66;4182360;28;20025;-63
2022/04/16 07:14:34;;;;;;;0.68;0.68;;;;;;;23.69;37.83;101575.63;4182293;28;20113;-63
2022/04/16 07:16:35;;;;;;;0.63;0.63;;;;;;;23.68;38.14;101579.53;4187409;28;20399;-63
2022/04/16 07:18:40;;;;;;;0.65;0.60;;;;;;;23.63;38.09;101565.53;4199035;28;20109;-63
2022/04/16 07:20:42;;;;;;;1.03;0.63;;;;;;;23.60;37.87;101560.53;4198687;28;20036;-63
2022/04/16 07:22:43;;;;;;;0.88;0.60;;;;;;;23.68;38.02;101565.56;4198576;28;20107;-63
2022/04/16 07:24:45;;;;;;;1.85;0.60;;;;;;;23.63;38.04;101561.91;4198631;28;20040;-64
2022/04/16 07:26:47;;;;;;;0.93;0.60;;;;;;;23.68;38.51;101562.75;4191674;28;20107;-63
2022/04/16 07:28:51;;;;;;;0.65;0.57;;;;;;;23.68;37.90;101565.56;4182032;28;20044;-64
2022/04/16 07:30:53;;;;;;;0.67;0.53;;;;;;;23.67;37.99;101569.47;4182071;28;20041;-63
2022/04/16 07:32:54;;;;;;;1.10;0.50;;;;;;;23.67;38.28;101572.25;4181952;28;20037;-62
2022/04/16 07:34:56;;;;;;;1.67;0.80;;;;;;;23.50;38.46;101543.78;4166800;28;20115;-63
2022/04/16 07:36:57;;;;;;;1.00;0.77;;;;;;;23.57;38.35;101552.72;4165723;28;20033;-64
2022/04/16 07:38:58;;;;;;;1.08;0.60;;;;;;;23.66;37.88;101559.41;4186568;28;20102;-64
2022/04/16 07:41:02;;;;;;;0.70;0.70;;;;;;;23.66;38.15;101555.78;4198730;28;20041;-63
2022/04/16 07:43:06;;;;;;;0.70;0.50;;;;;;;23.65;38.04;101573.69;4190334;28;20439;-62
2022/04/16 07:45:08;;;;;;;1.60;0.57;;;;;;;23.66;38.05;101569.78;4181972;28;20063;-63
2022/04/16 07:47:15;;;;;;;1.40;0.40;;;;;;;23.62;37.91;101561.06;4181487;28;20090;-63
2022/04/16 07:49:17;;;;;;;0.95;0.60;;;;;;;23.66;38.30;101569.78;4181603;28;20037;-63
2022/04/16 07:51:18;;;;;;;0.80;0.50;;;;;;;23.63;38.04;101559.13;4181991;28;20111;-64
2022/04/16 07:53:22;;;;;;;1.65;0.60;;;;;;;23.63;38.05;101559.94;4190690;28;20041;-64
2022/04/16 07:55:27;;;;;;;0.53;0.53;;;;;;;23.63;37.82;101548.78;4188381;28;20049;-63
2022/04/16 07:57:29;;;;;;;;;;;;;;;23.62;38.08;101543.47;4165779;28;20041;-63
2022/04/16 07:59:30;;;;;;;0.63;0.60;;;;;;;23.67;38.29;101532.31;4165940;28;19921;-63
2022/04/16 08:01:31;;;;;;;0.95;0.77;;;;;;;23.67;37.78;101549.91;4165328;28;20099;-63
2022/04/16 08:03:33;;;;;;;0.60;0.60;;;;;;;23.65;38.08;101549.38;4165435;28;20399;-63
2022/04/16 08:05:34;;;;;;;0.60;0.40;;;;;;;23.65;37.96;101568.94;4175615;28;20098;-63
2022/04/16 08:07:36;;;;;;;0.50;0.50;;;;;;;23.64;37.80;101572.84;4181400;28;20133;-63
2022/04/16 08:09:37;;;;;;;1.30;0.60;;;;;;;23.63;37.64;101571.13;4181463;28;20033;-65
2022/04/16 08:11:38;;;;;;;0.68;0.60;;;;;;;23.60;38.05;101577.31;4180165;28;20036;-64
2022/04/16 08:13:45;;;;;;;0.77;0.52;;;;;;;23.54;38.05;101568.06;4181302;28;20423;-63
2022/04/16 08:15:50;;;;;;;1.55;0.60;;;;;;;23.59;37.77;101567.22;4181110;28;20469;-64
2022/04/16 08:17:55;;;;;;;0.73;0.50;;;;;;;23.56;37.72;101560.25;4192420;28;20479;-64
2022/04/16 08:19:56;;;;;;;1.10;0.55;;;;;;;23.61;37.44;101561.38;4196254;28;20090;-63
2022/04/16 08:22:00;;;;;;;0.55;0.50;;;;;;;23.53;37.98;101555.22;4198238;28;20044;-63
2022/04/16 08:24:13;;;;;;;0.60;0.60;;;;;;;23.60;37.98;101560.53;4196836;28;20479;-63
2022/04/16 08:26:17;;;;;;;1.25;0.60;;;;;;;23.60;38.15;101557.75;4197946;28;20053;-64
2022/04/16 08:28:18;;;;;;;0.40;0.40;;;;;;;23.48;37.81;101534.88;4181131;28;20045;-63
2022/04/16 08:30:21;;;;;;;1.23;0.60;;;;;;;23.62;37.83;101551.88;4195549;28;20090;-63
2022/04/16 08:32:23;;;;;;;0.55;0.50;;;;;;;23.59;37.74;101542.94;4197548;28;20048;-63
2022/04/16 08:34:29;;;;;;;0.63;0.55;;;;;;;23.46;38.15;101521.19;4198124;28;20037;-63
2022/04/16 08:36:30;;;;;;;1.52;0.60;;;;;;;23.60;38.11;101529.81;4197661;28;20090;-63
2022/04/16 08:38:35;;;;;;;1.52;0.52;;;;;;;23.59;38.27;101536.50;4198135;28;20036;-63
2022/04/16 08:40:36;;;;;;;1.13;0.52;;;;;;;23.51;37.99;101517.56;4197734;28;20024;-64
2022/04/16 08:42:40;;;;;;;0.65;0.38;;;;;;;23.56;38.28;101532.31;4183151;28;20090;-63
2022/04/16 08:44:41;;;;;;;1.05;0.68;;;;;;;23.57;37.89;101525.63;4171882;28;20037;-63
2022/04/16 08:46:43;;;;;;;0.98;0.60;;;;;;;23.57;37.84;101535.97;4164319;28;20404;-64
2022/04/16 08:48:44;;;;;;;0.63;0.40;;;;;;;23.52;38.06;101525.63;4175591;28;20045;-62
2022/04/16 08:50:47;;;;;;;1.77;0.50;;;;;;;23.57;37.86;101533.16;4181127;28;20092;-62
2022/04/16 08:52:49;;;;;;;0.73;0.50;;;;;;;23.54;38.33;101528.13;4181388;28;20037;-62
2022/04/16 08:54:50;;;;;;;2.10;0.70;;;;;;;23.56;38.16;101517.53;4195285;28;20107;-62
2022/04/16 08:56:52;;;;;;;0.73;0.60;;;;;;;23.54;38.20;101512.22;4197769;28;20036;-62
2022/04/16 08:58:53;;;;;;;0.90;0.60;;;;;;;23.56;37.90;101517.53;4197662;28;20024;-62
2022/04/16 09:00:57;;;;;;;0.90;0.60;;;;;;;23.55;37.91;101511.09;4177221;28;20468;-62
2022/04/16 09:03:03;;;;;;;0.73;0.50;;;;;;;23.56;38.44;101514.72;4164855;28;20041;-62
2022/04/16 09:05:13;;;;;;;1.20;0.70;;;;;;;23.52;38.08;101516.41;4164921;28;20072;-62
2022/04/16 09:07:15;;;;;;;1.67;0.60;;;;;;;23.52;37.73;101514.47;4174051;28;20048;-62
2022/04/16 09:09:16;;;;;;;0.98;0.60;;;;;;;23.54;37.76;101522.53;4181814;28;20041;-63
2022/04/16 09:11:24;;;;;;;0.82;0.50;;;;;;;23.54;38.29;101505.78;4181766;28;20079;-62
2022/04/16 09:13:25;;;;;;;0.70;0.70;;;;;;;23.47;37.90;101496.88;4181334;28;20098;-62
2022/04/16 09:15:31;;;;;;;1.02;0.60;;;;;;;23.52;37.94;101503.28;4181457;28;20041;-63
2022/04/16 09:17:32;;;;;;;0.95;0.60;;;;;;;23.52;38.10;101508.03;4182456;28;20045;-63
2022/04/16 09:19:34;;;;;;;0.57;0.40;;;;;;;23.52;37.99;101496.88;4197810;28;20040;-63
2022/04/16 09:21:35;;;;;;;0.52;0.50;;;;;;;23.52;38.44;101496.88;4198159;28;20033;-63
2022/04/16 09:23:47;;;;;;;0.60;0.47;;;;;;;23.49;38.24;101487.09;4198129;28;20446;-62
2022/04/16 09:25:49;;;;;;;0.68;0.50;;;;;;;23.51;38.30;101484.84;4199415;28;20050;-62
2022/04/16 09:27:52;;;;;;;0.40;0.40;;;;;;;23.51;37.95;101495.19;4200729;28;20353;-62
2022/04/16 09:29:54;;;;;;;0.45;0.45;;;;;;;23.50;38.42;101487.91;4198791;28;20036;-62
2022/04/16 09:31:58;;;;;;;0.40;0.40;;;;;;;23.50;38.26;101488.78;4186539;28;20045;-62
2022/04/16 09:34:02;;;;;;;0.63;0.40;;;;;;;23.50;38.25;101488.78;4200661;28;20098;-62
2022/04/16 09:36:04;;;;;;;1.20;0.45;;;;;;;23.49;38.01;101486.25;4200290;28;20098;-62
2022/04/16 09:38:12;;;;;;;0.65;0.60;;;;;;;23.50;38.16;101487.91;4201418;28;20472;-62
2022/04/16 09:40:13;;;;;;;0.50;0.50;;;;;;;23.48;38.34;101484.59;4167189;28;20046;-62
2022/04/16 09:42:27;;;;;;;0.70;0.57;;;;;;;23.47;38.38;101488.50;4178791;28;20153;-62
2022/04/16 09:44:28;;;;;;;0.70;0.50;;;;;;;23.49;38.50;101475.06;4200603;28;20048;-62